sensor_id;sensor_type;location;lat;lon;timestamp;P1;durP1;ratioP1;P2;durP2;ratioP2
18857;SDS011;9558;50.178;8.370;2022-07-23T00:00:09;6.43;;;4.75;;
18857;SDS011;9558;50.178;8.370;2022-07-23T00:02:38;11.07;;;4.78;;
18857;SDS011;9558;50.178;8.370;2022-07-23T00:05:04;5.70;;;4.43;;
18857;SDS011;9558;50.178;8.370;2022-07-23T00:07:31;5.97;;;4.70;;
18857;SDS011;9558;50.178;8.370;2022-07-23T00:09:58;5.95;;;4.60;;
18857;SDS011;9558;50.178;8.370;2022-07-23T00:12:24;6.60;;;4.82;;
18857;SDS011;9558;50.178;8.370;2022-07-23T00:17:18;6.68;;;4.75;;
18857;SDS011;9558;50.178;8.370;2022-07-23T00:19:45;6.07;;;5.03;;
18857;SDS011;9558;50.178;8.370;2022-07-23T00:22:12;6.90;;;5.00;;
18857;SDS011;9558;50.178;8.370;2022-07-23T00:24:39;11.27;;;5.13;;
18857;SDS011;9558;50.178;8.370;2022-07-23T00:27:05;8.32;;;4.85;;
18857;SDS011;9558;50.178;8.370;2022-07-23T00:29:32;7.53;;;4.88;;
18857;SDS011;9558;50.178;8.370;2022-07-23T00:31:59;7.22;;;5.78;;
18857;SDS011;9558;50.178;8.370;2022-07-23T00:34:25;10.40;;;5.43;;
18857;SDS011;9558;50.178;8.370;2022-07-23T00:36:53;8.27;;;4.95;;
18857;SDS011;9558;50.178;8.370;2022-07-23T00:39:20;10.80;;;5.47;;
18857;SDS011;9558;50.178;8.370;2022-07-23T00:41:47;7.90;;;5.35;;
18857;SDS011;9558;50.178;8.370;2022-07-23T00:44:14;9.48;;;5.43;;
18857;SDS011;9558;50.178;8.370;2022-07-23T00:46:44;7.15;;;5.47;;
18857;SDS011;9558;50.178;8.370;2022-07-23T00:49:12;6.47;;;4.88;;
18857;SDS011;9558;50.178;8.370;2022-07-23T00:51:38;11.38;;;5.28;;
18857;SDS011;9558;50.178;8.370;2022-07-23T00:54:06;7.95;;;4.97;;
18857;SDS011;9558;50.178;8.370;2022-07-23T00:56:33;7.72;;;5.35;;
18857;SDS011;9558;50.178;8.370;2022-07-23T00:59:00;8.05;;;5.03;;
18857;SDS011;9558;50.178;8.370;2022-07-23T01:01:27;7.07;;;5.05;;
18857;SDS011;9558;50.178;8.370;2022-07-23T01:03:53;6.35;;;5.07;;
18857;SDS011;9558;50.178;8.370;2022-07-23T01:06:20;8.55;;;5.78;;
18857;SDS011;9558;50.178;8.370;2022-07-23T01:08:46;7.10;;;5.07;;
18857;SDS011;9558;50.178;8.370;2022-07-23T01:11:15;8.75;;;5.57;;
18857;SDS011;9558;50.178;8.370;2022-07-23T01:13:44;7.38;;;5.20;;
18857;SDS011;9558;50.178;8.370;2022-07-23T01:16:10;6.85;;;5.50;;
18857;SDS011;9558;50.178;8.370;2022-07-23T01:18:37;8.40;;;5.30;;
18857;SDS011;9558;50.178;8.370;2022-07-23T01:21:04;7.03;;;5.03;;
18857;SDS011;9558;50.178;8.370;2022-07-23T01:25:58;7.65;;;4.97;;
18857;SDS011;9558;50.178;8.370;2022-07-23T01:28:25;8.77;;;5.50;;
18857;SDS011;9558;50.178;8.370;2022-07-23T01:30:51;9.50;;;5.50;;
18857;SDS011;9558;50.178;8.370;2022-07-23T01:33:17;8.15;;;5.60;;
18857;SDS011;9558;50.178;8.370;2022-07-23T01:35:44;7.50;;;5.18;;
18857;SDS011;9558;50.178;8.370;2022-07-23T01:38:10;9.25;;;5.60;;
18857;SDS011;9558;50.178;8.370;2022-07-23T01:40:38;10.45;;;5.28;;
18857;SDS011;9558;50.178;8.370;2022-07-23T01:43:05;7.00;;;5.43;;
18857;SDS011;9558;50.178;8.370;2022-07-23T01:45:31;7.95;;;5.20;;
18857;SDS011;9558;50.178;8.370;2022-07-23T01:47:58;10.18;;;5.40;;
18857;SDS011;9558;50.178;8.370;2022-07-23T01:50:24;8.23;;;5.00;;
18857;SDS011;9558;50.178;8.370;2022-07-23T01:52:51;5.80;;;5.07;;
18857;SDS011;9558;50.178;8.370;2022-07-23T01:55:17;8.05;;;5.57;;
18857;SDS011;9558;50.178;8.370;2022-07-23T01:57:46;9.70;;;5.53;;
18857;SDS011;9558;50.178;8.370;2022-07-23T02:00:13;9.00;;;5.50;;
18857;SDS011;9558;50.178;8.370;2022-07-23T02:05:06;7.90;;;5.95;;
18857;SDS011;9558;50.178;8.370;2022-07-23T02:07:33;9.60;;;5.68;;
18857;SDS011;9558;50.178;8.370;2022-07-23T02:10:03;8.98;;;5.80;;
18857;SDS011;9558;50.178;8.370;2022-07-23T02:12:30;9.57;;;5.78;;
18857;SDS011;9558;50.178;8.370;2022-07-23T02:14:58;9.48;;;6.22;;
18857;SDS011;9558;50.178;8.370;2022-07-23T02:17:25;8.25;;;5.75;;
18857;SDS011;9558;50.178;8.370;2022-07-23T02:19:51;9.70;;;5.93;;
18857;SDS011;9558;50.178;8.370;2022-07-23T02:22:18;10.07;;;6.47;;
18857;SDS011;9558;50.178;8.370;2022-07-23T02:24:44;9.63;;;6.53;;
18857;SDS011;9558;50.178;8.370;2022-07-23T02:27:11;10.70;;;6.75;;
18857;SDS011;9558;50.178;8.370;2022-07-23T02:29:37;13.80;;;7.15;;
18857;SDS011;9558;50.178;8.370;2022-07-23T02:32:05;10.00;;;7.07;;
18857;SDS011;9558;50.178;8.370;2022-07-23T02:34:32;12.05;;;7.57;;
18857;SDS011;9558;50.178;8.370;2022-07-23T02:36:58;11.48;;;6.75;;
18857;SDS011;9558;50.178;8.370;2022-07-23T02:39:25;12.25;;;7.68;;
18857;SDS011;9558;50.178;8.370;2022-07-23T02:41:52;12.80;;;7.40;;
18857;SDS011;9558;50.178;8.370;2022-07-23T02:44:18;12.50;;;8.00;;
18857;SDS011;9558;50.178;8.370;2022-07-23T02:46:45;13.68;;;7.50;;
18857;SDS011;9558;50.178;8.370;2022-07-23T02:49:13;13.77;;;7.60;;
18857;SDS011;9558;50.178;8.370;2022-07-23T02:51:39;13.75;;;7.28;;
18857;SDS011;9558;50.178;8.370;2022-07-23T02:54:06;15.68;;;8.07;;
18857;SDS011;9558;50.178;8.370;2022-07-23T02:56:32;17.17;;;8.02;;
18857;SDS011;9558;50.178;8.370;2022-07-23T02:58:59;12.93;;;7.78;;
18857;SDS011;9558;50.178;8.370;2022-07-23T03:01:25;15.50;;;8.60;;
18857;SDS011;9558;50.178;8.370;2022-07-23T03:03:52;12.30;;;8.15;;
18857;SDS011;9558;50.178;8.370;2022-07-23T03:06:20;14.05;;;8.73;;
18857;SDS011;9558;50.178;8.370;2022-07-23T03:08:46;13.25;;;7.95;;
18857;SDS011;9558;50.178;8.370;2022-07-23T03:11:13;12.73;;;7.95;;
18857;SDS011;9558;50.178;8.370;2022-07-23T03:13:40;16.15;;;8.27;;
18857;SDS011;9558;50.178;8.370;2022-07-23T03:16:07;13.85;;;8.23;;
18857;SDS011;9558;50.178;8.370;2022-07-23T03:18:34;12.20;;;8.27;;
18857;SDS011;9558;50.178;8.370;2022-07-23T03:21:00;13.65;;;7.88;;
18857;SDS011;9558;50.178;8.370;2022-07-23T03:23:28;12.27;;;7.72;;
18857;SDS011;9558;50.178;8.370;2022-07-23T03:25:55;13.45;;;8.32;;
18857;SDS011;9558;50.178;8.370;2022-07-23T03:28:21;12.07;;;7.50;;
18857;SDS011;9558;50.178;8.370;2022-07-23T03:30:48;10.20;;;6.90;;
18857;SDS011;9558;50.178;8.370;2022-07-23T03:33:15;11.73;;;6.95;;
18857;SDS011;9558;50.178;8.370;2022-07-23T03:35:42;11.48;;;7.53;;
18857;SDS011;9558;50.178;8.370;2022-07-23T03:38:09;12.98;;;7.25;;
18857;SDS011;9558;50.178;8.370;2022-07-23T03:40:37;10.63;;;7.25;;
18857;SDS011;9558;50.178;8.370;2022-07-23T03:43:04;13.20;;;7.50;;
18857;SDS011;9558;50.178;8.370;2022-07-23T03:45:30;12.25;;;6.78;;
18857;SDS011;9558;50.178;8.370;2022-07-23T03:50:24;11.52;;;6.45;;
18857;SDS011;9558;50.178;8.370;2022-07-23T03:52:50;11.00;;;7.10;;
18857;SDS011;9558;50.178;8.370;2022-07-23T03:55:17;9.38;;;6.40;;
18857;SDS011;9558;50.178;8.370;2022-07-23T03:57:45;10.90;;;6.85;;
18857;SDS011;9558;50.178;8.370;2022-07-23T04:00:12;10.48;;;7.05;;
18857;SDS011;9558;50.178;8.370;2022-07-23T04:02:40;10.07;;;7.50;;
18857;SDS011;9558;50.178;8.370;2022-07-23T04:07:33;10.65;;;6.80;;
18857;SDS011;9558;50.178;8.370;2022-07-23T04:10:00;10.13;;;6.43;;
18857;SDS011;9558;50.178;8.370;2022-07-23T04:12:26;10.18;;;6.97;;
18857;SDS011;9558;50.178;8.370;2022-07-23T04:14:54;14.65;;;6.90;;
18857;SDS011;9558;50.178;8.370;2022-07-23T04:17:21;11.98;;;7.25;;
18857;SDS011;9558;50.178;8.370;2022-07-23T04:19:48;13.07;;;7.95;;
18857;SDS011;9558;50.178;8.370;2022-07-23T04:22:14;11.90;;;7.20;;
18857;SDS011;9558;50.178;8.370;2022-07-23T04:24:41;14.82;;;7.57;;
18857;SDS011;9558;50.178;8.370;2022-07-23T04:27:08;12.85;;;7.78;;
18857;SDS011;9558;50.178;8.370;2022-07-23T04:29:34;14.30;;;7.47;;
18857;SDS011;9558;50.178;8.370;2022-07-23T04:32:03;13.55;;;7.22;;
18857;SDS011;9558;50.178;8.370;2022-07-23T04:34:30;12.88;;;7.97;;
18857;SDS011;9558;50.178;8.370;2022-07-23T04:36:56;10.75;;;7.78;;
18857;SDS011;9558;50.178;8.370;2022-07-23T04:39:23;13.85;;;8.57;;
18857;SDS011;9558;50.178;8.370;2022-07-23T04:41:50;13.00;;;7.40;;
18857;SDS011;9558;50.178;8.370;2022-07-23T04:44:16;13.95;;;7.70;;
18857;SDS011;9558;50.178;8.370;2022-07-23T04:46:43;13.05;;;7.90;;
18857;SDS011;9558;50.178;8.370;2022-07-23T04:49:11;13.65;;;7.88;;
18857;SDS011;9558;50.178;8.370;2022-07-23T04:51:37;10.98;;;6.75;;
18857;SDS011;9558;50.178;8.370;2022-07-23T04:54:04;12.77;;;7.57;;
18857;SDS011;9558;50.178;8.370;2022-07-23T04:56:31;12.73;;;7.55;;
18857;SDS011;9558;50.178;8.370;2022-07-23T04:58:57;15.15;;;7.65;;
18857;SDS011;9558;50.178;8.370;2022-07-23T05:01:24;12.85;;;7.90;;
18857;SDS011;9558;50.178;8.370;2022-07-23T05:03:51;11.85;;;7.05;;
18857;SDS011;9558;50.178;8.370;2022-07-23T05:06:19;12.95;;;7.28;;
18857;SDS011;9558;50.178;8.370;2022-07-23T05:08:45;15.57;;;8.82;;
18857;SDS011;9558;50.178;8.370;2022-07-23T05:11:12;12.93;;;7.15;;
18857;SDS011;9558;50.178;8.370;2022-07-23T05:13:39;10.95;;;6.45;;
18857;SDS011;9558;50.178;8.370;2022-07-23T05:16:05;11.52;;;7.75;;
18857;SDS011;9558;50.178;8.370;2022-07-23T05:18:32;11.85;;;7.82;;
18857;SDS011;9558;50.178;8.370;2022-07-23T05:20:59;11.30;;;6.88;;
18857;SDS011;9558;50.178;8.370;2022-07-23T05:23:27;13.00;;;7.22;;
18857;SDS011;9558;50.178;8.370;2022-07-23T05:25:53;10.15;;;6.70;;
18857;SDS011;9558;50.178;8.370;2022-07-23T05:28:20;10.88;;;6.90;;
18857;SDS011;9558;50.178;8.370;2022-07-23T05:30:47;11.55;;;7.45;;
18857;SDS011;9558;50.178;8.370;2022-07-23T05:33:13;11.60;;;7.45;;
18857;SDS011;9558;50.178;8.370;2022-07-23T05:35:40;11.50;;;8.02;;
18857;SDS011;9558;50.178;8.370;2022-07-23T05:38:07;10.23;;;7.40;;
18857;SDS011;9558;50.178;8.370;2022-07-23T05:40:38;11.70;;;7.65;;
18857;SDS011;9558;50.178;8.370;2022-07-23T05:43:04;11.32;;;6.80;;
18857;SDS011;9558;50.178;8.370;2022-07-23T05:45:31;12.38;;;6.95;;
18857;SDS011;9558;50.178;8.370;2022-07-23T05:47:57;8.93;;;6.78;;
18857;SDS011;9558;50.178;8.370;2022-07-23T05:50:24;10.95;;;6.95;;
18857;SDS011;9558;50.178;8.370;2022-07-23T05:52:51;12.07;;;7.60;;
18857;SDS011;9558;50.178;8.370;2022-07-23T05:55:18;11.82;;;6.82;;
18857;SDS011;9558;50.178;8.370;2022-07-23T05:57:45;10.02;;;6.38;;
18857;SDS011;9558;50.178;8.370;2022-07-23T06:00:12;8.88;;;6.00;;
18857;SDS011;9558;50.178;8.370;2022-07-23T06:02:39;9.27;;;6.63;;
18857;SDS011;9558;50.178;8.370;2022-07-23T06:05:06;12.43;;;6.43;;
18857;SDS011;9558;50.178;8.370;2022-07-23T06:07:34;9.98;;;6.40;;
18857;SDS011;9558;50.178;8.370;2022-07-23T06:10:01;11.00;;;6.10;;
18857;SDS011;9558;50.178;8.370;2022-07-23T06:12:27;9.35;;;6.35;;
18857;SDS011;9558;50.178;8.370;2022-07-23T06:14:55;9.73;;;6.25;;
18857;SDS011;9558;50.178;8.370;2022-07-23T06:17:22;11.30;;;6.30;;
18857;SDS011;9558;50.178;8.370;2022-07-23T06:19:48;9.48;;;5.90;;
18857;SDS011;9558;50.178;8.370;2022-07-23T06:22:15;7.55;;;5.78;;
18857;SDS011;9558;50.178;8.370;2022-07-23T06:24:42;8.80;;;5.55;;
18857;SDS011;9558;50.178;8.370;2022-07-23T06:27:08;7.53;;;5.18;;
18857;SDS011;9558;50.178;8.370;2022-07-23T06:29:35;7.28;;;5.07;;
18857;SDS011;9558;50.178;8.370;2022-07-23T06:32:03;9.68;;;5.43;;
18857;SDS011;9558;50.178;8.370;2022-07-23T06:34:30;8.27;;;5.05;;
18857;SDS011;9558;50.178;8.370;2022-07-23T06:36:57;6.72;;;4.72;;
18857;SDS011;9558;50.178;8.370;2022-07-23T06:39:23;7.68;;;4.80;;
18857;SDS011;9558;50.178;8.370;2022-07-23T06:41:56;6.30;;;4.93;;
18857;SDS011;9558;50.178;8.370;2022-07-23T06:44:26;7.72;;;5.05;;
18857;SDS011;9558;50.178;8.370;2022-07-23T06:46:53;7.53;;;4.50;;
18857;SDS011;9558;50.178;8.370;2022-07-23T06:49:21;6.10;;;4.22;;
18857;SDS011;9558;50.178;8.370;2022-07-23T06:51:47;5.97;;;4.18;;
18857;SDS011;9558;50.178;8.370;2022-07-23T06:54:14;5.55;;;4.20;;
18857;SDS011;9558;50.178;8.370;2022-07-23T06:56:41;6.63;;;3.90;;
18857;SDS011;9558;50.178;8.370;2022-07-23T06:59:08;4.97;;;3.53;;
18857;SDS011;9558;50.178;8.370;2022-07-23T07:04:01;5.43;;;3.80;;
18857;SDS011;9558;50.178;8.370;2022-07-23T07:06:30;6.00;;;4.03;;
18857;SDS011;9558;50.178;8.370;2022-07-23T07:08:56;5.05;;;4.00;;
18857;SDS011;9558;50.178;8.370;2022-07-23T07:11:23;4.72;;;3.90;;
18857;SDS011;9558;50.178;8.370;2022-07-23T07:13:50;4.32;;;3.83;;
18857;SDS011;9558;50.178;8.370;2022-07-23T07:16:17;6.07;;;3.88;;
18857;SDS011;9558;50.178;8.370;2022-07-23T07:18:44;4.82;;;4.10;;
18857;SDS011;9558;50.178;8.370;2022-07-23T07:23:38;4.97;;;3.45;;
18857;SDS011;9558;50.178;8.370;2022-07-23T07:26:06;6.03;;;4.03;;
18857;SDS011;9558;50.178;8.370;2022-07-23T07:28:33;6.50;;;3.70;;
18857;SDS011;9558;50.178;8.370;2022-07-23T07:31:00;4.93;;;3.55;;
18857;SDS011;9558;50.178;8.370;2022-07-23T07:33:27;3.70;;;3.28;;
18857;SDS011;9558;50.178;8.370;2022-07-23T07:35:55;4.82;;;3.60;;
18857;SDS011;9558;50.178;8.370;2022-07-23T07:38:21;4.07;;;3.67;;
18857;SDS011;9558;50.178;8.370;2022-07-23T07:40:49;3.92;;;3.17;;
18857;SDS011;9558;50.178;8.370;2022-07-23T07:43:16;4.43;;;2.90;;
18857;SDS011;9558;50.178;8.370;2022-07-23T07:45:43;3.80;;;3.17;;
18857;SDS011;9558;50.178;8.370;2022-07-23T07:48:10;3.22;;;2.88;;
18857;SDS011;9558;50.178;8.370;2022-07-23T07:50:36;4.47;;;2.95;;
18857;SDS011;9558;50.178;8.370;2022-07-23T07:53:08;3.45;;;3.15;;
18857;SDS011;9558;50.178;8.370;2022-07-23T07:55:37;3.75;;;3.05;;
18857;SDS011;9558;50.178;8.370;2022-07-23T07:58:05;3.50;;;3.10;;
18857;SDS011;9558;50.178;8.370;2022-07-23T08:00:36;3.75;;;2.78;;
18857;SDS011;9558;50.178;8.370;2022-07-23T08:03:03;3.63;;;2.83;;
18857;SDS011;9558;50.178;8.370;2022-07-23T08:05:30;4.40;;;3.00;;
18857;SDS011;9558;50.178;8.370;2022-07-23T08:07:57;5.32;;;3.30;;
18857;SDS011;9558;50.178;8.370;2022-07-23T08:10:25;3.03;;;2.75;;
18857;SDS011;9558;50.178;8.370;2022-07-23T08:12:54;4.22;;;3.30;;
18857;SDS011;9558;50.178;8.370;2022-07-23T08:15:24;3.72;;;3.00;;
18857;SDS011;9558;50.178;8.370;2022-07-23T08:17:53;2.78;;;2.47;;
18857;SDS011;9558;50.178;8.370;2022-07-23T08:20:20;4.47;;;3.20;;
18857;SDS011;9558;50.178;8.370;2022-07-23T08:22:48;3.67;;;3.03;;
18857;SDS011;9558;50.178;8.370;2022-07-23T08:25:19;4.78;;;3.00;;
18857;SDS011;9558;50.178;8.370;2022-07-23T08:27:47;3.83;;;2.83;;
18857;SDS011;9558;50.178;8.370;2022-07-23T08:30:14;3.13;;;2.80;;
18857;SDS011;9558;50.178;8.370;2022-07-23T08:32:50;3.80;;;3.08;;
18857;SDS011;9558;50.178;8.370;2022-07-23T08:35:21;3.97;;;3.17;;
18857;SDS011;9558;50.178;8.370;2022-07-23T08:37:49;5.15;;;2.88;;
18857;SDS011;9558;50.178;8.370;2022-07-23T08:40:16;4.75;;;3.42;;
18857;SDS011;9558;50.178;8.370;2022-07-23T08:42:43;6.40;;;3.53;;
18857;SDS011;9558;50.178;8.370;2022-07-23T08:45:13;5.68;;;3.58;;
18857;SDS011;9558;50.178;8.370;2022-07-23T08:47:42;4.68;;;3.63;;
18857;SDS011;9558;50.178;8.370;2022-07-23T08:50:11;5.85;;;3.45;;
18857;SDS011;9558;50.178;8.370;2022-07-23T08:52:38;5.63;;;3.58;;
18857;SDS011;9558;50.178;8.370;2022-07-23T08:55:06;4.47;;;3.53;;
18857;SDS011;9558;50.178;8.370;2022-07-23T08:57:33;6.40;;;4.07;;
18857;SDS011;9558;50.178;8.370;2022-07-23T09:00:00;7.05;;;4.30;;
18857;SDS011;9558;50.178;8.370;2022-07-23T09:02:27;5.00;;;4.50;;
18857;SDS011;9558;50.178;8.370;2022-07-23T09:04:54;4.40;;;3.97;;
18857;SDS011;9558;50.178;8.370;2022-07-23T09:07:22;4.53;;;4.10;;
18857;SDS011;9558;50.178;8.370;2022-07-23T09:09:50;7.78;;;4.50;;
18857;SDS011;9558;50.178;8.370;2022-07-23T09:12:31;4.40;;;4.00;;
18857;SDS011;9558;50.178;8.370;2022-07-23T09:14:58;4.43;;;3.78;;
18857;SDS011;9558;50.178;8.370;2022-07-23T09:17:36;4.00;;;3.60;;
18857;SDS011;9558;50.178;8.370;2022-07-23T09:20:07;4.60;;;3.58;;
18857;SDS011;9558;50.178;8.370;2022-07-23T09:22:36;5.75;;;3.70;;
18857;SDS011;9558;50.178;8.370;2022-07-23T09:25:05;5.53;;;3.55;;
18857;SDS011;9558;50.178;8.370;2022-07-23T09:30:28;4.95;;;3.92;;
18857;SDS011;9558;50.178;8.370;2022-07-23T09:33:09;4.32;;;3.92;;
18857;SDS011;9558;50.178;8.370;2022-07-23T09:35:46;4.90;;;3.08;;
18857;SDS011;9558;50.178;8.370;2022-07-23T09:38:16;4.28;;;3.63;;
18857;SDS011;9558;50.178;8.370;2022-07-23T09:40:45;4.43;;;3.63;;
18857;SDS011;9558;50.178;8.370;2022-07-23T09:43:12;4.32;;;3.92;;
18857;SDS011;9558;50.178;8.370;2022-07-23T09:45:52;3.58;;;3.28;;
18857;SDS011;9558;50.178;8.370;2022-07-23T09:48:19;5.82;;;3.92;;
18857;SDS011;9558;50.178;8.370;2022-07-23T09:50:48;4.95;;;3.40;;
18857;SDS011;9558;50.178;8.370;2022-07-23T09:53:24;4.40;;;4.00;;
18857;SDS011;9558;50.178;8.370;2022-07-23T09:55:51;6.18;;;4.22;;
18857;SDS011;9558;50.178;8.370;2022-07-23T09:58:23;6.07;;;4.13;;
18857;SDS011;9558;50.178;8.370;2022-07-23T10:00:52;5.05;;;3.50;;
18857;SDS011;9558;50.178;8.370;2022-07-23T10:03:19;5.10;;;3.53;;
18857;SDS011;9558;50.178;8.370;2022-07-23T10:05:46;4.70;;;3.78;;
18857;SDS011;9558;50.178;8.370;2022-07-23T10:08:14;6.40;;;3.60;;
18857;SDS011;9558;50.178;8.370;2022-07-23T10:10:46;6.53;;;3.42;;
18857;SDS011;9558;50.178;8.370;2022-07-23T10:13:13;4.35;;;3.70;;
18857;SDS011;9558;50.178;8.370;2022-07-23T10:15:58;6.53;;;3.35;;
18857;SDS011;9558;50.178;8.370;2022-07-23T10:18:25;3.42;;;3.10;;
18857;SDS011;9558;50.178;8.370;2022-07-23T10:20:52;3.63;;;3.33;;
18857;SDS011;9558;50.178;8.370;2022-07-23T10:23:20;5.20;;;3.28;;
18857;SDS011;9558;50.178;8.370;2022-07-23T10:25:59;4.15;;;3.33;;
18857;SDS011;9558;50.178;8.370;2022-07-23T10:28:40;4.43;;;3.85;;
18857;SDS011;9558;50.178;8.370;2022-07-23T10:31:16;7.00;;;3.90;;
18857;SDS011;9558;50.178;8.370;2022-07-23T10:33:54;5.25;;;3.92;;
18857;SDS011;9558;50.178;8.370;2022-07-23T10:36:30;3.85;;;3.40;;
18857;SDS011;9558;50.178;8.370;2022-07-23T10:39:08;5.18;;;3.80;;
18857;SDS011;9558;50.178;8.370;2022-07-23T10:41:43;5.72;;;3.78;;
18857;SDS011;9558;50.178;8.370;2022-07-23T10:44:10;5.68;;;3.83;;
18857;SDS011;9558;50.178;8.370;2022-07-23T10:49:41;6.22;;;4.65;;
18857;SDS011;9558;50.178;8.370;2022-07-23T10:52:22;5.47;;;4.07;;
18857;SDS011;9558;50.178;8.370;2022-07-23T10:54:50;4.80;;;4.18;;
18857;SDS011;9558;50.178;8.370;2022-07-23T10:57:20;5.20;;;3.65;;
18857;SDS011;9558;50.178;8.370;2022-07-23T11:02:43;4.93;;;4.30;;
18857;SDS011;9558;50.178;8.370;2022-07-23T11:05:11;5.38;;;3.95;;
18857;SDS011;9558;50.178;8.370;2022-07-23T11:10:40;5.55;;;4.15;;
18857;SDS011;9558;50.178;8.370;2022-07-23T11:19:00;5.68;;;4.18;;
18857;SDS011;9558;50.178;8.370;2022-07-23T11:21:40;4.90;;;4.43;;
18857;SDS011;9558;50.178;8.370;2022-07-23T11:24:12;6.30;;;4.50;;
18857;SDS011;9558;50.178;8.370;2022-07-23T11:26:40;6.50;;;4.70;;
18857;SDS011;9558;50.178;8.370;2022-07-23T11:35:20;7.60;;;4.80;;
18857;SDS011;9558;50.178;8.370;2022-07-23T11:38:03;5.00;;;4.50;;
18857;SDS011;9558;50.178;8.370;2022-07-23T11:40:31;6.47;;;4.47;;
18857;SDS011;9558;50.178;8.370;2022-07-23T11:42:58;8.85;;;4.70;;
18857;SDS011;9558;50.178;8.370;2022-07-23T11:45:29;6.88;;;4.43;;
18857;SDS011;9558;50.178;8.370;2022-07-23T11:47:58;5.20;;;4.22;;
18857;SDS011;9558;50.178;8.370;2022-07-23T11:50:24;12.02;;;5.05;;
18857;SDS011;9558;50.178;8.370;2022-07-23T11:52:51;6.00;;;4.82;;
18857;SDS011;9558;50.178;8.370;2022-07-23T11:55:18;5.85;;;4.95;;
18857;SDS011;9558;50.178;8.370;2022-07-23T11:57:46;8.13;;;4.97;;
18857;SDS011;9558;50.178;8.370;2022-07-23T12:00:14;5.25;;;4.43;;
18857;SDS011;9558;50.178;8.370;2022-07-23T12:02:44;6.35;;;4.60;;
18857;SDS011;9558;50.178;8.370;2022-07-23T12:05:14;6.70;;;4.75;;
18857;SDS011;9558;50.178;8.370;2022-07-23T12:07:43;5.47;;;4.47;;
18857;SDS011;9558;50.178;8.370;2022-07-23T12:10:15;5.95;;;4.78;;
18857;SDS011;9558;50.178;8.370;2022-07-23T12:12:44;7.20;;;4.50;;
18857;SDS011;9558;50.178;8.370;2022-07-23T12:15:15;5.10;;;4.60;;
18857;SDS011;9558;50.178;8.370;2022-07-23T12:17:45;6.68;;;5.00;;
18857;SDS011;9558;50.178;8.370;2022-07-23T12:20:14;6.07;;;4.85;;
18857;SDS011;9558;50.178;8.370;2022-07-23T12:22:43;6.18;;;4.88;;
18857;SDS011;9558;50.178;8.370;2022-07-23T12:25:11;6.00;;;4.97;;
18857;SDS011;9558;50.178;8.370;2022-07-23T12:27:40;5.65;;;5.05;;
18857;SDS011;9558;50.178;8.370;2022-07-23T12:30:20;6.50;;;4.90;;
18857;SDS011;9558;50.178;8.370;2022-07-23T12:32:51;6.30;;;4.85;;
18857;SDS011;9558;50.178;8.370;2022-07-23T12:35:19;6.57;;;5.03;;
18857;SDS011;9558;50.178;8.370;2022-07-23T12:37:47;6.32;;;4.82;;
18857;SDS011;9558;50.178;8.370;2022-07-23T12:40:21;5.40;;;4.70;;
18857;SDS011;9558;50.178;8.370;2022-07-23T12:42:50;7.35;;;5.20;;
18857;SDS011;9558;50.178;8.370;2022-07-23T12:45:18;5.28;;;4.78;;
18857;SDS011;9558;50.178;8.370;2022-07-23T12:50:42;7.38;;;5.38;;
18857;SDS011;9558;50.178;8.370;2022-07-23T12:53:15;6.85;;;5.30;;
18857;SDS011;9558;50.178;8.370;2022-07-23T12:55:43;7.00;;;5.10;;
18857;SDS011;9558;50.178;8.370;2022-07-23T12:58:12;5.70;;;4.50;;
18857;SDS011;9558;50.178;8.370;2022-07-23T13:00:51;7.10;;;4.90;;
18857;SDS011;9558;50.178;8.370;2022-07-23T13:03:31;6.68;;;4.45;;
18857;SDS011;9558;50.178;8.370;2022-07-23T13:06:00;6.60;;;4.78;;
18857;SDS011;9558;50.178;8.370;2022-07-23T13:08:28;5.68;;;4.80;;
18857;SDS011;9558;50.178;8.370;2022-07-23T13:10:56;7.60;;;4.75;;
18857;SDS011;9558;50.178;8.370;2022-07-23T13:13:24;5.30;;;4.80;;
18857;SDS011;9558;50.178;8.370;2022-07-23T13:15:52;6.45;;;5.25;;
18857;SDS011;9558;50.178;8.370;2022-07-23T13:18:20;6.95;;;4.80;;
18857;SDS011;9558;50.178;8.370;2022-07-23T13:20:49;5.88;;;5.07;;
18857;SDS011;9558;50.178;8.370;2022-07-23T13:23:16;5.80;;;4.40;;
18857;SDS011;9558;50.178;8.370;2022-07-23T13:25:44;8.52;;;4.55;;
18857;SDS011;9558;50.178;8.370;2022-07-23T13:28:11;6.03;;;4.60;;
18857;SDS011;9558;50.178;8.370;2022-07-23T13:30:38;5.78;;;4.65;;
18857;SDS011;9558;50.178;8.370;2022-07-23T13:33:05;6.82;;;5.28;;
18857;SDS011;9558;50.178;8.370;2022-07-23T13:35:33;7.70;;;4.53;;
18857;SDS011;9558;50.178;8.370;2022-07-23T13:38:01;5.15;;;4.40;;
18857;SDS011;9558;50.178;8.370;2022-07-23T13:40:29;6.63;;;4.43;;
18857;SDS011;9558;50.178;8.370;2022-07-23T13:42:55;5.57;;;4.60;;
18857;SDS011;9558;50.178;8.370;2022-07-23T13:45:22;5.30;;;4.80;;
18857;SDS011;9558;50.178;8.370;2022-07-23T13:47:49;6.63;;;4.90;;
18857;SDS011;9558;50.178;8.370;2022-07-23T13:50:15;5.00;;;4.60;;
18857;SDS011;9558;50.178;8.370;2022-07-23T13:52:42;5.13;;;4.63;;
18857;SDS011;9558;50.178;8.370;2022-07-23T13:55:11;5.32;;;4.75;;
18857;SDS011;9558;50.178;8.370;2022-07-23T13:57:37;5.18;;;4.68;;
18857;SDS011;9558;50.178;8.370;2022-07-23T14:00:05;6.45;;;4.82;;
18857;SDS011;9558;50.178;8.370;2022-07-23T14:02:33;6.50;;;4.47;;
18857;SDS011;9558;50.178;8.370;2022-07-23T14:05:02;5.18;;;4.57;;
18857;SDS011;9558;50.178;8.370;2022-07-23T14:07:29;7.45;;;4.28;;
18857;SDS011;9558;50.178;8.370;2022-07-23T14:12:23;6.10;;;4.15;;
18857;SDS011;9558;50.178;8.370;2022-07-23T14:14:50;6.40;;;4.30;;
18857;SDS011;9558;50.178;8.370;2022-07-23T14:17:16;5.65;;;4.28;;
18857;SDS011;9558;50.178;8.370;2022-07-23T14:19:43;7.55;;;4.30;;
18857;SDS011;9558;50.178;8.370;2022-07-23T14:22:10;5.20;;;3.80;;
18857;SDS011;9558;50.178;8.370;2022-07-23T14:24:37;6.03;;;3.40;;
18857;SDS011;9558;50.178;8.370;2022-07-23T14:27:04;3.90;;;3.47;;
18857;SDS011;9558;50.178;8.370;2022-07-23T14:29:32;4.65;;;3.90;;
18857;SDS011;9558;50.178;8.370;2022-07-23T14:31:59;6.35;;;3.58;;
18857;SDS011;9558;50.178;8.370;2022-07-23T14:34:26;5.97;;;3.70;;
18857;SDS011;9558;50.178;8.370;2022-07-23T14:36:53;5.00;;;3.72;;
18857;SDS011;9558;50.178;8.370;2022-07-23T14:39:19;4.28;;;3.88;;
18857;SDS011;9558;50.178;8.370;2022-07-23T14:44:12;6.47;;;3.80;;
18857;SDS011;9558;50.178;8.370;2022-07-23T14:49:07;4.05;;;3.22;;
18857;SDS011;9558;50.178;8.370;2022-07-23T14:51:33;4.00;;;3.60;;
18857;SDS011;9558;50.178;8.370;2022-07-23T14:54:01;3.83;;;3.53;;
18857;SDS011;9558;50.178;8.370;2022-07-23T14:56:28;4.93;;;3.50;;
18857;SDS011;9558;50.178;8.370;2022-07-23T14:58:54;4.25;;;3.53;;
18857;SDS011;9558;50.178;8.370;2022-07-23T15:01:21;3.97;;;3.58;;
18857;SDS011;9558;50.178;8.370;2022-07-23T15:03:50;6.10;;;3.55;;
18857;SDS011;9558;50.178;8.370;2022-07-23T15:06:17;5.88;;;3.97;;
18857;SDS011;9558;50.178;8.370;2022-07-23T15:08:43;4.82;;;3.60;;
18857;SDS011;9558;50.178;8.370;2022-07-23T15:11:10;5.65;;;3.65;;
18857;SDS011;9558;50.178;8.370;2022-07-23T15:13:41;4.57;;;3.53;;
18857;SDS011;9558;50.178;8.370;2022-07-23T15:16:08;7.18;;;3.53;;
18857;SDS011;9558;50.178;8.370;2022-07-23T15:18:35;4.68;;;4.10;;
18857;SDS011;9558;50.178;8.370;2022-07-23T15:21:03;4.35;;;3.47;;
18857;SDS011;9558;50.178;8.370;2022-07-23T15:23:30;5.20;;;3.50;;
18857;SDS011;9558;50.178;8.370;2022-07-23T15:25:57;4.38;;;3.40;;
18857;SDS011;9558;50.178;8.370;2022-07-23T15:28:24;3.55;;;3.25;;
18857;SDS011;9558;50.178;8.370;2022-07-23T15:30:51;6.93;;;3.95;;
18857;SDS011;9558;50.178;8.370;2022-07-23T15:33:18;4.82;;;3.03;;
18857;SDS011;9558;50.178;8.370;2022-07-23T15:35:45;4.50;;;3.22;;
18857;SDS011;9558;50.178;8.370;2022-07-23T15:38:13;4.22;;;3.70;;
18857;SDS011;9558;50.178;8.370;2022-07-23T15:40:39;4.22;;;3.40;;
18857;SDS011;9558;50.178;8.370;2022-07-23T15:45:32;4.32;;;3.08;;
18857;SDS011;9558;50.178;8.370;2022-07-23T15:47:59;5.72;;;3.50;;
18857;SDS011;9558;50.178;8.370;2022-07-23T15:50:26;4.10;;;3.08;;
18857;SDS011;9558;50.178;8.370;2022-07-23T15:55:20;4.05;;;3.13;;
18857;SDS011;9558;50.178;8.370;2022-07-23T15:57:47;6.35;;;3.13;;